Time;durP1;ratioP1;P1;durP2;ratioP2;P2;SDS_P1;SDS_P2;PMS_P1;PMS_P2;Temp;Humidity;BMP_temperature;BMP_pressure;BME280_temperature;BME280_humidity;BME280_pressure;Samples;Min_cycle;Max_cycle;Signal;HPM_P1;HPM_P2
2022/07/02 00:00:04;;;;;;;8.43;3.80;;;;;;;;;;3357690;42;20088;-58
2022/07/02 00:02:32;;;;;;;12.15;3.80;;;;;;;;;;3358046;42;20089;-58
2022/07/02 00:04:59;;;;;;;10.63;4.00;;;;;;;;;;3358472;42;20096;-61
2022/07/02 00:07:26;;;;;;;8.63;3.85;;;;;;;;;;3356845;42;20096;-58
2022/07/02 00:09:56;;;;;;;9.48;4.00;;;;;;;;;;3358240;42;20104;-58
2022/07/02 00:12:28;;;;;;;10.32;3.70;;;;;;;;;;3356860;42;20084;-58
2022/07/02 00:14:56;;;;;;;8.95;3.85;;;;;;;;;;3358375;42;20081;-60
2022/07/02 00:17:22;;;;;;;12.17;4.37;;;;;;;;;;3358362;42;20123;-58
2022/07/02 00:19:49;;;;;;;12.50;4.78;;;;;;;;;;3357039;42;20540;-61
2022/07/02 00:22:15;;;;;;;13.07;4.90;;;;;;;;;;3357888;42;20088;-56
2022/07/02 00:24:41;;;;;;;11.30;4.75;;;;;;;;;;3356840;42;20562;-58
2022/07/02 00:27:12;;;;;;;12.38;4.80;;;;;;;;;;3358155;42;20089;-56
2022/07/02 00:29:47;;;;;;;8.27;3.70;;;;;;;;;;3352304;42;20088;-60
2022/07/02 00:32:13;;;;;;;9.07;4.60;;;;;;;;;;3359221;42;20084;-58
2022/07/02 00:34:39;;;;;;;10.35;4.22;;;;;;;;;;3356496;42;20084;-60
2022/07/02 00:37:08;;;;;;;8.10;3.85;;;;;;;;;;3357250;42;20152;-60
2022/07/02 00:39:37;;;;;;;10.43;3.90;;;;;;;;;;3356456;42;20098;-61
2022/07/02 00:42:04;;;;;;;8.83;3.63;;;;;;;;;;3358411;42;20096;-58
2022/07/02 00:44:31;;;;;;;6.85;3.30;;;;;;;;;;3357916;42;20084;-59
2022/07/02 00:46:59;;;;;;;7.22;3.15;;;;;;;;;;3357971;42;20107;-57
2022/07/02 00:49:25;;;;;;;6.75;3.10;;;;;;;;;;3355795;42;20612;-60
2022/07/02 00:51:51;;;;;;;9.23;3.30;;;;;;;;;;3356393;42;20563;-59
2022/07/02 00:54:17;;;;;;;7.20;3.33;;;;;;;;;;3357953;42;20562;-60
2022/07/02 00:56:43;;;;;;;10.75;3.75;;;;;;;;;;3357977;42;20115;-60
2022/07/02 00:59:09;;;;;;;11.23;3.80;;;;;;;;;;3356345;42;20171;-58
2022/07/02 01:01:35;;;;;;;14.70;4.20;;;;;;;;;;3356642;42;20211;-58
2022/07/02 01:04:01;;;;;;;21.45;4.32;;;;;;;;;;3357795;42;20076;-61
2022/07/02 01:06:26;;;;;;;22.45;4.18;;;;;;;;;;3356424;42;20232;-60
2022/07/02 01:11:37;;;;;;;21.30;3.77;;;;;;;;;;3352293;42;20303;-60
2022/07/02 01:14:04;;;;;;;23.23;4.20;;;;;;;;;;3358097;42;20550;-58
2022/07/02 01:16:30;;;;;;;18.55;5.00;;;;;;;;;;3357424;42;20667;-59
2022/07/02 01:18:55;;;;;;;18.40;4.45;;;;;;;;;;3359612;42;20092;-59
2022/07/02 01:21:21;;;;;;;16.50;4.30;;;;;;;;;;3356392;42;20091;-59
2022/07/02 01:23:47;;;;;;;16.48;4.55;;;;;;;;;;3357839;42;20136;-58
2022/07/02 01:26:13;;;;;;;19.05;4.32;;;;;;;;;;3357746;42;20090;-59
2022/07/02 01:28:39;;;;;;;17.17;4.27;;;;;;;;;;3358114;42;20158;-60
2022/07/02 01:31:05;;;;;;;16.50;4.05;;;;;;;;;;3357421;42;20092;-57
2022/07/02 01:33:31;;;;;;;14.82;4.28;;;;;;;;;;3357972;42;20563;-59
2022/07/02 01:35:58;;;;;;;13.40;3.58;;;;;;;;;;3357705;42;20115;-59
2022/07/02 01:38:24;;;;;;;11.53;3.33;;;;;;;;;;3356179;42;20095;-59
2022/07/02 01:40:50;;;;;;;13.90;3.88;;;;;;;;;;3357830;42;20691;-62
2022/07/02 01:43:15;;;;;;;8.40;3.05;;;;;;;;;;3357206;42;20091;-61
2022/07/02 01:45:41;;;;;;;11.45;3.58;;;;;;;;;;3357326;42;20119;-61
2022/07/02 01:48:07;;;;;;;10.50;3.50;;;;;;;;;;3357412;42;20148;-60
2022/07/02 01:50:36;;;;;;;8.00;3.50;;;;;;;;;;3357090;42;20252;-59
2022/07/02 01:53:02;;;;;;;10.38;3.47;;;;;;;;;;3357330;42;20084;-59
2022/07/02 01:55:28;;;;;;;7.25;2.97;;;;;;;;;;3356121;42;20506;-58
2022/07/02 01:57:54;;;;;;;8.57;3.57;;;;;;;;;;3357314;42;20613;-59
2022/07/02 02:00:20;;;;;;;8.88;3.10;;;;;;;;;;3356251;42;20158;-58
2022/07/02 02:02:46;;;;;;;9.25;3.40;;;;;;;;;;3357287;42;20154;-58
2022/07/02 02:05:12;;;;;;;11.23;4.20;;;;;;;;;;3357520;42;20132;-62
2022/07/02 02:07:38;;;;;;;11.67;4.30;;;;;;;;;;3357601;42;20128;-57
2022/07/02 02:10:05;;;;;;;10.95;4.32;;;;;;;;;;3357351;42;20562;-57
2022/07/02 02:12:31;;;;;;;13.82;5.28;;;;;;;;;;3357401;42;20132;-59
2022/07/02 02:14:57;;;;;;;13.53;4.40;;;;;;;;;;3357377;42;20339;-58
2022/07/02 02:17:23;;;;;;;11.47;4.47;;;;;;;;;;3356185;42;20292;-58
2022/07/02 02:19:49;;;;;;;11.57;4.68;;;;;;;;;;3357549;42;20080;-57
2022/07/02 02:22:16;;;;;;;10.13;4.10;;;;;;;;;;3358354;42;20567;-58
2022/07/02 02:24:41;;;;;;;11.55;4.25;;;;;;;;;;3359231;42;20203;-59
2022/07/02 02:27:07;;;;;;;11.63;4.90;;;;;;;;;;3359248;42;20088;-59
2022/07/02 02:29:33;;;;;;;11.63;4.82;;;;;;;;;;3358720;42;20143;-59
2022/07/02 02:31:59;;;;;;;12.75;5.15;;;;;;;;;;3359256;42;20148;-59
2022/07/02 02:34:25;;;;;;;15.23;5.17;;;;;;;;;;3358874;42;20127;-58
2022/07/02 02:36:51;;;;;;;12.90;5.32;;;;;;;;;;3358693;42;20181;-59
2022/07/02 02:39:17;;;;;;;14.95;5.53;;;;;;;;;;3358913;42;20088;-60
2022/07/02 02:41:43;;;;;;;15.32;5.18;;;;;;;;;;3359060;42;20080;-58
2022/07/02 02:44:09;;;;;;;12.20;4.93;;;;;;;;;;3359125;42;20569;-58
2022/07/02 02:46:35;;;;;;;10.02;5.00;;;;;;;;;;3358736;42;20107;-58
2022/07/02 02:49:00;;;;;;;7.70;4.00;;;;;;;;;;3358830;42;20111;-60
2022/07/02 02:51:26;;;;;;;10.50;4.20;;;;;;;;;;3358704;42;20606;-59
2022/07/02 02:53:53;;;;;;;9.33;4.07;;;;;;;;;;3359353;42;20961;-61
2022/07/02 02:56:19;;;;;;;7.32;3.60;;;;;;;;;;3359127;42;20147;-59
2022/07/02 02:58:45;;;;;;;6.40;3.33;;;;;;;;;;3359081;42;20162;-60
2022/07/02 03:01:11;;;;;;;9.15;3.70;;;;;;;;;;3359102;42;20099;-59
2022/07/02 03:03:37;;;;;;;7.10;3.53;;;;;;;;;;3359048;42;20162;-62
2022/07/02 03:06:03;;;;;;;6.90;3.70;;;;;;;;;;3359155;42;20606;-59
2022/07/02 03:08:29;;;;;;;7.45;3.35;;;;;;;;;;3359002;42;20597;-58
2022/07/02 03:10:55;;;;;;;8.90;3.67;;;;;;;;;;3358991;42;20553;-57
2022/07/02 03:13:20;;;;;;;10.73;3.67;;;;;;;;;;3358739;42;20588;-60
2022/07/02 03:15:46;;;;;;;7.95;3.55;;;;;;;;;;3359034;42;20096;-62
2022/07/02 03:18:13;;;;;;;8.27;3.42;;;;;;;;;;3358972;42;20099;-60
2022/07/02 03:20:39;;;;;;;7.47;3.80;;;;;;;;;;3357415;42;20103;-58
2022/07/02 03:23:05;;;;;;;8.33;3.60;;;;;;;;;;3358755;42;20084;-58
2022/07/02 03:25:31;;;;;;;8.20;3.78;;;;;;;;;;3358674;42;20530;-60
2022/07/02 03:27:57;;;;;;;6.50;3.50;;;;;;;;;;3358941;42;20123;-57
2022/07/02 03:30:23;;;;;;;7.33;3.67;;;;;;;;;;3356886;42;20152;-61
2022/07/02 03:32:49;;;;;;;7.53;3.60;;;;;;;;;;3358400;42;20174;-60
2022/07/02 03:35:14;;;;;;;7.47;4.03;;;;;;;;;;3358965;42;20559;-59
2022/07/02 03:37:40;;;;;;;7.72;3.97;;;;;;;;;;3358731;42;20645;-57
2022/07/02 03:40:07;;;;;;;8.03;4.20;;;;;;;;;;3358505;42;20784;-58
2022/07/02 03:42:33;;;;;;;7.75;4.43;;;;;;;;;;3351952;42;20096;-59
2022/07/02 03:44:59;;;;;;;11.15;4.97;;;;;;;;;;3358370;42;20169;-60
2022/07/02 03:47:25;;;;;;;10.18;4.88;;;;;;;;;;3358454;42;20085;-59
2022/07/02 03:49:51;;;;;;;9.50;4.47;;;;;;;;;;3357079;42;20581;-60
2022/07/02 03:52:17;;;;;;;10.70;4.70;;;;;;;;;;3359075;42;20111;-56
2022/07/02 03:54:43;;;;;;;8.80;4.45;;;;;;;;;;3358373;42;20104;-59
2022/07/02 03:57:09;;;;;;;9.05;4.80;;;;;;;;;;3358338;42;20571;-58
2022/07/02 03:59:35;;;;;;;10.23;4.40;;;;;;;;;;3356542;42;20088;-56
2022/07/02 04:02:01;;;;;;;9.50;4.57;;;;;;;;;;3358766;42;20089;-60
2022/07/02 04:04:27;;;;;;;7.72;4.22;;;;;;;;;;3358408;42;20080;-59
2022/07/02 04:06:53;;;;;;;8.50;4.20;;;;;;;;;;3358354;42;20095;-59
2022/07/02 04:09:19;;;;;;;6.90;4.03;;;;;;;;;;3358461;42;20100;-61
2022/07/02 04:11:44;;;;;;;9.00;4.30;;;;;;;;;;3358173;42;20115;-61
2022/07/02 04:14:10;;;;;;;9.23;4.00;;;;;;;;;;3357357;42;20096;-61
2022/07/02 04:16:36;;;;;;;7.78;4.20;;;;;;;;;;3357023;42;20163;-61
2022/07/02 04:19:02;;;;;;;7.43;3.77;;;;;;;;;;3356894;42;20155;-60
2022/07/02 04:21:28;;;;;;;7.72;4.00;;;;;;;;;;3358290;42;20114;-59
2022/07/02 04:23:54;;;;;;;8.77;3.78;;;;;;;;;;3357068;42;20103;-60
2022/07/02 04:26:20;;;;;;;10.05;4.45;;;;;;;;;;3357886;42;20547;-60
2022/07/02 04:28:46;;;;;;;9.37;3.80;;;;;;;;;;3360676;42;20551;-59
2022/07/02 04:31:12;;;;;;;7.82;4.15;;;;;;;;;;3360866;42;20095;-60
2022/07/02 04:33:38;;;;;;;8.32;3.85;;;;;;;;;;3358321;42;20158;-59
2022/07/02 04:36:04;;;;;;;8.17;4.00;;;;;;;;;;3358015;42;20115;-60
2022/07/02 04:38:30;;;;;;;8.30;4.00;;;;;;;;;;3357850;42;20101;-60
2022/07/02 04:40:56;;;;;;;7.15;3.50;;;;;;;;;;3358307;42;20102;-61
2022/07/02 04:43:22;;;;;;;7.40;3.85;;;;;;;;;;3357924;42;20598;-60
2022/07/02 04:45:48;;;;;;;6.97;3.77;;;;;;;;;;3358804;42;20127;-58
2022/07/02 04:48:14;;;;;;;9.27;3.92;;;;;;;;;;3358269;42;20611;-58
2022/07/02 04:50:40;;;;;;;6.57;3.58;;;;;;;;;;3357999;42;20097;-58
2022/07/02 04:53:05;;;;;;;10.17;3.83;;;;;;;;;;3356636;42;20586;-61
2022/07/02 04:55:31;;;;;;;7.72;3.80;;;;;;;;;;3357851;42;20096;-60
2022/07/02 04:57:57;;;;;;;7.07;3.70;;;;;;;;;;3357938;42;20155;-60
2022/07/02 05:00:23;;;;;;;7.68;3.80;;;;;;;;;;3357661;42;20088;-60
2022/07/02 05:02:49;;;;;;;7.60;3.40;;;;;;;;;;3358212;42;20159;-59
2022/07/02 05:05:15;;;;;;;7.45;3.97;;;;;;;;;;3357954;42;20096;-59
2022/07/02 05:07:41;;;;;;;7.13;3.72;;;;;;;;;;3357988;42;20114;-59
2022/07/02 05:10:08;;;;;;;7.32;3.75;;;;;;;;;;3358010;42;20599;-59
2022/07/02 05:12:34;;;;;;;7.10;3.90;;;;;;;;;;3357950;42;20118;-59
2022/07/02 05:14:59;;;;;;;7.90;4.10;;;;;;;;;;3357225;42;20530;-59
2022/07/02 05:17:25;;;;;;;6.68;3.80;;;;;;;;;;3357268;42;20081;-60
2022/07/02 05:19:51;;;;;;;7.67;3.97;;;;;;;;;;3358260;42;20554;-57
2022/07/02 05:22:17;;;;;;;8.00;3.80;;;;;;;;;;3353170;42;20354;-58
2022/07/02 05:24:43;;;;;;;10.07;4.05;;;;;;;;;;3357508;42;20084;-60
2022/07/02 05:27:09;;;;;;;8.38;3.83;;;;;;;;;;3357772;42;20088;-58
2022/07/02 05:29:35;;;;;;;7.77;3.90;;;;;;;;;;3357348;42;20115;-60
2022/07/02 05:32:01;;;;;;;9.40;4.10;;;;;;;;;;3357868;42;20170;-58
2022/07/02 05:34:27;;;;;;;6.40;3.53;;;;;;;;;;3355992;42;20159;-58
2022/07/02 05:36:53;;;;;;;8.13;4.43;;;;;;;;;;3357383;42;20088;-60
2022/07/02 05:39:19;;;;;;;7.43;4.00;;;;;;;;;;3357521;42;20096;-58
2022/07/02 05:41:45;;;;;;;8.13;4.10;;;;;;;;;;3355943;42;20084;-61
2022/07/02 05:44:11;;;;;;;10.77;4.65;;;;;;;;;;3355766;42;20103;-62
2022/07/02 05:46:37;;;;;;;8.50;4.50;;;;;;;;;;3357798;42;20088;-60
2022/07/02 05:49:03;;;;;;;9.55;5.35;;;;;;;;;;3357767;42;20104;-60
2022/07/02 05:51:29;;;;;;;9.00;5.20;;;;;;;;;;3357549;42;20092;-60
2022/07/02 05:53:55;;;;;;;11.63;5.43;;;;;;;;;;3357751;42;20107;-60
2022/07/02 05:56:21;;;;;;;10.50;5.63;;;;;;;;;;3356856;42;20076;-59
2022/07/02 05:58:46;;;;;;;10.10;5.35;;;;;;;;;;3357478;42;20088;-60
2022/07/02 06:01:12;;;;;;;9.23;5.07;;;;;;;;;;3357612;42;20096;-59
2022/07/02 06:03:38;;;;;;;8.33;5.03;;;;;;;;;;3355405;42;20088;-60
2022/07/02 06:08:49;;;;;;;10.00;6.10;;;;;;;;;;3356310;42;20088;-59
2022/07/02 06:11:14;;;;;;;8.35;5.13;;;;;;;;;;3357072;42;20111;-62
2022/07/02 06:13:41;;;;;;;15.33;7.47;;;;;;;;;;3357305;42;20103;-60
2022/07/02 06:16:07;;;;;;;9.95;5.68;;;;;;;;;;3357521;42;20657;-61
2022/07/02 06:18:33;;;;;;;10.02;4.40;;;;;;;;;;3357445;42;20103;-59
2022/07/02 06:20:58;;;;;;;8.48;4.50;;;;;;;;;;3357413;42;20088;-60
2022/07/02 06:23:24;;;;;;;10.33;4.10;;;;;;;;;;3357596;42;20095;-61
2022/07/02 06:25:50;;;;;;;7.97;4.28;;;;;;;;;;3357171;42;20092;-58
2022/07/02 06:28:16;;;;;;;8.30;4.43;;;;;;;;;;3351345;42;20076;-60
2022/07/02 06:30:42;;;;;;;8.47;4.50;;;;;;;;;;3357305;42;20111;-59
2022/07/02 06:33:08;;;;;;;8.40;4.40;;;;;;;;;;3357350;42;20363;-60
2022/07/02 06:35:34;;;;;;;8.57;4.15;;;;;;;;;;3355625;42;20148;-61
2022/07/02 06:38:00;;;;;;;7.07;4.32;;;;;;;;;;3355808;42;20096;-60
2022/07/02 06:40:26;;;;;;;9.50;4.45;;;;;;;;;;3357330;42;20103;-60
2022/07/02 06:42:52;;;;;;;7.83;4.17;;;;;;;;;;3355661;42;20092;-58
2022/07/02 06:45:18;;;;;;;10.38;4.28;;;;;;;;;;3354949;42;20096;-59
2022/07/02 06:47:44;;;;;;;7.07;4.30;;;;;;;;;;3357127;42;20099;-56
2022/07/02 06:50:11;;;;;;;10.10;4.30;;;;;;;;;;3356955;42;20093;-56
2022/07/02 06:52:37;;;;;;;9.18;4.00;;;;;;;;;;3357314;42;20096;-55
2022/07/02 06:55:04;;;;;;;7.43;4.27;;;;;;;;;;3357121;42;20092;-59
2022/07/02 06:57:30;;;;;;;8.98;4.35;;;;;;;;;;3356980;42;20103;-57
2022/07/02 06:59:56;;;;;;;7.57;4.45;;;;;;;;;;3356795;42;20096;-57
2022/07/02 07:02:22;;;;;;;8.13;4.55;;;;;;;;;;3357336;42;20107;-56
2022/07/02 07:04:48;;;;;;;9.20;4.87;;;;;;;;;;3357024;42;20708;-55
2022/07/02 07:07:14;;;;;;;9.48;4.32;;;;;;;;;;3356852;42;20096;-54
2022/07/02 07:09:40;;;;;;;9.07;4.38;;;;;;;;;;3357978;42;20164;-57
2022/07/02 07:12:06;;;;;;;7.15;4.43;;;;;;;;;;3358571;42;20132;-56
2022/07/02 07:14:33;;;;;;;8.47;4.10;;;;;;;;;;3358304;42;20096;-55
2022/07/02 07:16:59;;;;;;;10.23;4.40;;;;;;;;;;3358870;42;20111;-54
2022/07/02 07:19:25;;;;;;;8.43;4.60;;;;;;;;;;3358497;42;20088;-58
2022/07/02 07:21:51;;;;;;;8.25;4.47;;;;;;;;;;3357997;42;20084;-50
2022/07/02 07:24:17;;;;;;;8.03;4.20;;;;;;;;;;3360706;42;20102;-56
2022/07/02 07:26:43;;;;;;;8.55;4.70;;;;;;;;;;3359133;42;20088;-58
2022/07/02 07:29:09;;;;;;;8.82;5.38;;;;;;;;;;3358280;42;20579;-57
2022/07/02 07:31:54;;;;;;;9.57;4.75;;;;;;;;;;3358343;42;20110;-55
2022/07/02 07:34:20;;;;;;;9.13;4.70;;;;;;;;;;3361863;42;20160;-60
2022/07/02 07:36:46;;;;;;;8.00;4.53;;;;;;;;;;3360934;42;20223;-58
2022/07/02 07:39:12;;;;;;;9.27;5.00;;;;;;;;;;3358644;42;20091;-57
2022/07/02 07:41:39;;;;;;;8.65;4.78;;;;;;;;;;3358350;42;20186;-56
2022/07/02 07:44:05;;;;;;;7.97;4.35;;;;;;;;;;3358546;42;20144;-55
2022/07/02 07:46:31;;;;;;;7.97;4.07;;;;;;;;;;3362637;42;20118;-52
2022/07/02 07:48:58;;;;;;;12.52;4.60;;;;;;;;;;3362075;42;20092;-59
2022/07/02 07:51:24;;;;;;;7.70;4.32;;;;;;;;;;3359984;42;20107;-58
2022/07/02 07:53:51;;;;;;;7.65;4.75;;;;;;;;;;3360914;42;20130;-59
2022/07/02 07:56:18;;;;;;;8.63;4.03;;;;;;;;;;3360430;42;20174;-58
2022/07/02 07:58:44;;;;;;;7.75;4.05;;;;;;;;;;3358473;42;20092;-57
2022/07/02 08:01:10;;;;;;;9.70;4.60;;;;;;;;;;3356955;42;20092;-57
2022/07/02 08:03:36;;;;;;;7.18;3.97;;;;;;;;;;3357936;42;20143;-52
2022/07/02 08:06:02;;;;;;;8.77;4.22;;;;;;;;;;3357757;42;20104;-57
2022/07/02 08:08:28;;;;;;;8.97;4.63;;;;;;;;;;3358115;42;20100;-57
2022/07/02 08:10:54;;;;;;;8.95;4.40;;;;;;;;;;3358065;42;20562;-56
2022/07/02 08:13:20;;;;;;;8.05;4.07;;;;;;;;;;3358070;42;20104;-57
2022/07/02 08:15:46;;;;;;;8.07;3.58;;;;;;;;;;3358042;42;20136;-58
2022/07/02 08:18:12;;;;;;;7.43;3.80;;;;;;;;;;3357029;42;20140;-56
2022/07/02 08:20:38;;;;;;;6.97;3.85;;;;;;;;;;3357708;42;20076;-56
2022/07/02 08:23:04;;;;;;;8.95;4.28;;;;;;;;;;3357879;42;20096;-57
2022/07/02 08:25:30;;;;;;;8.63;3.75;;;;;;;;;;3358054;42;20088;-57
2022/07/02 08:27:56;;;;;;;9.33;3.60;;;;;;;;;;3358034;42;20088;-55
2022/07/02 08:30:22;;;;;;;6.88;3.78;;;;;;;;;;3357801;42;20682;-55
2022/07/02 08:32:50;;;;;;;7.65;3.30;;;;;;;;;;3357674;42;20092;-57
2022/07/02 08:35:17;;;;;;;7.65;3.38;;;;;;;;;;3357625;42;20096;-57
2022/07/02 08:37:43;;;;;;;8.00;3.20;;;;;;;;;;3356548;42;20115;-54
2022/07/02 08:40:10;;;;;;;9.63;4.15;;;;;;;;;;3356356;42;20104;-59
2022/07/02 08:42:36;;;;;;;7.82;3.92;;;;;;;;;;3356600;42;20110;-57
2022/07/02 08:45:03;;;;;;;7.00;3.20;;;;;;;;;;3357930;42;20178;-57
2022/07/02 08:47:29;;;;;;;7.20;3.67;;;;;;;;;;3355337;42;20119;-55
2022/07/02 08:49:56;;;;;;;7.57;3.80;;;;;;;;;;3349056;42;20106;-57
2022/07/02 08:52:23;;;;;;;7.72;4.03;;;;;;;;;;3357579;42;20127;-57
2022/07/02 08:54:49;;;;;;;8.88;4.05;;;;;;;;;;3355059;42;20100;-57
2022/07/02 08:57:15;;;;;;;7.40;3.60;;;;;;;;;;3356440;42;20092;-56
2022/07/02 08:59:42;;;;;;;8.25;3.67;;;;;;;;;;3357491;42;20157;-55
2022/07/02 09:02:10;;;;;;;8.73;3.80;;;;;;;;;;3357923;42;20155;-56
2022/07/02 09:04:39;;;;;;;9.25;3.72;;;;;;;;;;3348702;42;20108;-58
2022/07/02 09:07:05;;;;;;;10.23;4.10;;;;;;;;;;3356414;42;20162;-57
2022/07/02 09:09:31;;;;;;;6.45;3.60;;;;;;;;;;3357441;42;20107;-57
2022/07/02 09:11:57;;;;;;;7.30;3.50;;;;;;;;;;3356261;42;20084;-56
2022/07/02 09:14:23;;;;;;;7.20;3.78;;;;;;;;;;3356207;42;20096;-56
2022/07/02 09:16:49;;;;;;;9.85;4.05;;;;;;;;;;3355925;42;20514;-59
2022/07/02 09:19:16;;;;;;;9.13;3.85;;;;;;;;;;3357013;42;20110;-55
2022/07/02 09:21:43;;;;;;;10.85;3.80;;;;;;;;;;3356999;42;20226;-58
2022/07/02 09:24:09;;;;;;;6.47;3.47;;;;;;;;;;3356094;42;20148;-59
2022/07/02 09:26:35;;;;;;;7.38;3.38;;;;;;;;;;3357287;42;20103;-57
2022/07/02 09:29:01;;;;;;;6.95;3.30;;;;;;;;;;3357209;42;20100;-56
2022/07/02 09:31:27;;;;;;;9.00;4.90;;;;;;;;;;3356931;42;20215;-57
2022/07/02 09:33:53;;;;;;;7.30;3.23;;;;;;;;;;3357375;42;20107;-57
2022/07/02 09:36:20;;;;;;;7.00;3.40;;;;;;;;;;3356092;42;20184;-51
2022/07/02 09:38:48;;;;;;;9.98;3.95;;;;;;;;;;3357179;42;20092;-55
2022/07/02 09:41:21;;;;;;;6.85;3.20;;;;;;;;;;3357507;42;20096;-56
2022/07/02 09:44:00;;;;;;;7.40;3.20;;;;;;;;;;3357159;42;20511;-56
2022/07/02 09:46:26;;;;;;;8.57;3.77;;;;;;;;;;3357436;42;20088;-52
2022/07/02 09:48:52;;;;;;;7.53;3.17;;;;;;;;;;3356869;42;20151;-55
2022/07/02 09:51:18;;;;;;;7.45;3.30;;;;;;;;;;3357214;42;20546;-55
2022/07/02 09:53:47;;;;;;;6.03;3.10;;;;;;;;;;3357236;42;20088;-57
2022/07/02 09:56:13;;;;;;;7.00;3.20;;;;;;;;;;3358032;42;20092;-54
2022/07/02 09:58:39;;;;;;;7.20;2.93;;;;;;;;;;3343648;42;20171;-53
2022/07/02 10:01:05;;;;;;;6.43;2.97;;;;;;;;;;3355223;42;20589;-58
2022/07/02 10:03:31;;;;;;;7.82;3.10;;;;;;;;;;3357442;42;20103;-57
2022/07/02 10:05:57;;;;;;;7.18;3.03;;;;;;;;;;3357382;42;20084;-55
2022/07/02 10:08:23;;;;;;;8.77;3.30;;;;;;;;;;3356168;42;20490;-55
2022/07/02 10:10:49;;;;;;;6.40;2.85;;;;;;;;;;3357221;42;20096;-54
2022/07/02 10:13:16;;;;;;;6.95;3.15;;;;;;;;;;3355934;42;20249;-53
2022/07/02 10:15:48;;;;;;;6.22;3.10;;;;;;;;;;3357200;42;20571;-55
2022/07/02 10:18:14;;;;;;;6.93;3.07;;;;;;;;;;3357278;42;20080;-52
2022/07/02 10:20:40;;;;;;;6.13;2.75;;;;;;;;;;3356946;42;20097;-58
2022/07/02 10:23:06;;;;;;;7.28;3.00;;;;;;;;;;3357388;42;20084;-57
2022/07/02 10:25:33;;;;;;;7.05;2.90;;;;;;;;;;3357507;42;20096;-57
2022/07/02 10:28:00;;;;;;;8.05;3.30;;;;;;;;;;3357452;42;20107;-57
2022/07/02 10:30:32;;;;;;;8.30;3.13;;;;;;;;;;3355412;42;20103;-63
2022/07/02 10:33:21;;;;;;;7.32;2.97;;;;;;;;;;3354035;42;20092;-56
2022/07/02 10:35:48;;;;;;;7.80;3.05;;;;;;;;;;3357135;42;20096;-52
2022/07/02 10:38:14;;;;;;;6.38;2.80;;;;;;;;;;3356414;42;20096;-57
2022/07/02 10:40:47;;;;;;;6.82;3.08;;;;;;;;;;3359513;42;20135;-58
2022/07/02 10:43:16;;;;;;;6.80;3.00;;;;;;;;;;3357014;42;20100;-56
2022/07/02 10:45:42;;;;;;;7.03;3.05;;;;;;;;;;3357664;42;20542;-52
2022/07/02 10:48:08;;;;;;;7.85;3.10;;;;;;;;;;3358614;42;20566;-56
2022/07/02 10:50:38;;;;;;;7.00;3.35;;;;;;;;;;3357226;42;20144;-57
2022/07/02 10:53:19;;;;;;;6.43;3.10;;;;;;;;;;3359058;42;20092;-55
2022/07/02 10:55:58;;;;;;;7.17;3.40;;;;;;;;;;3358541;42;20088;-55
2022/07/02 10:58:28;;;;;;;6.55;3.40;;;;;;;;;;3358853;42;20111;-57
2022/07/02 11:00:55;;;;;;;7.47;3.50;;;;;;;;;;3358410;42;20167;-57
2022/07/02 11:03:25;;;;;;;7.90;3.90;;;;;;;;;;3358328;42;20523;-58
2022/07/02 11:06:00;;;;;;;6.75;3.53;;;;;;;;;;3358678;42;20206;-57
2022/07/02 11:08:43;;;;;;;9.63;3.53;;;;;;;;;;3355220;42;20148;-60
2022/07/02 11:11:10;;;;;;;6.25;3.10;;;;;;;;;;3352503;42;20093;-59
2022/07/02 11:13:40;;;;;;;6.90;3.10;;;;;;;;;;3357380;42;20503;-57
2022/07/02 11:16:39;;;;;;;7.70;3.10;;;;;;;;;;3357315;42;20144;-59
2022/07/02 11:19:20;;;;;;;8.15;3.10;;;;;;;;;;3351584;42;20164;-55
2022/07/02 11:21:47;;;;;;;7.53;3.00;;;;;;;;;;3358690;42;20103;-59
2022/07/02 11:24:20;;;;;;;6.60;2.83;;;;;;;;;;3358142;42;20084;-57
2022/07/02 11:26:46;;;;;;;8.82;3.22;;;;;;;;;;3358450;42;20551;-61
2022/07/02 11:29:13;;;;;;;8.88;3.40;;;;;;;;;;3358182;42;20096;-58
2022/07/02 11:31:47;;;;;;;9.63;3.60;;;;;;;;;;3357037;42;20089;-59
2022/07/02 11:34:19;;;;;;;9.98;3.55;;;;;;;;;;3358342;42;20095;-59
2022/07/02 11:36:45;;;;;;;8.30;3.70;;;;;;;;;;3357483;42;20115;-60
2022/07/02 11:39:13;;;;;;;8.07;3.65;;;;;;;;;;3358084;42;20132;-61
2022/07/02 11:41:39;;;;;;;8.48;3.30;;;;;;;;;;3357804;42;20100;-60
2022/07/02 11:44:15;;;;;;;6.43;3.10;;;;;;;;;;3356841;42;20100;-58
2022/07/02 11:46:42;;;;;;;7.00;3.20;;;;;;;;;;3349032;42;20645;-57
2022/07/02 11:49:19;;;;;;;9.00;3.40;;;;;;;;;;3358137;42;20144;-59
2022/07/02 11:51:45;;;;;;;9.48;3.63;;;;;;;;;;3358098;42;20111;-57
2022/07/02 11:54:12;;;;;;;8.43;3.72;;;;;;;;;;3357861;42;20610;-55
2022/07/02 11:56:38;;;;;;;8.57;3.90;;;;;;;;;;3358636;42;20555;-59
2022/07/02 11:59:08;;;;;;;7.20;3.10;;;;;;;;;;3358253;42;20088;-58
2022/07/02 12:01:34;;;;;;;8.00;3.17;;;;;;;;;;3358352;42;20080;-58
2022/07/02 12:04:04;;;;;;;6.78;3.30;;;;;;;;;;3357879;42;20758;-58
2022/07/02 12:06:32;;;;;;;9.07;3.45;;;;;;;;;;3357040;42;20104;-59
2022/07/02 12:08:59;;;;;;;6.47;2.93;;;;;;;;;;3358071;42;20096;-60
2022/07/02 12:11:25;;;;;;;7.03;3.10;;;;;;;;;;3356788;42;20111;-57
2022/07/02 12:13:52;;;;;;;7.45;3.20;;;;;;;;;;3358451;42;20098;-57
2022/07/02 12:16:25;;;;;;;6.10;2.95;;;;;;;;;;3356935;42;20096;-58
2022/07/02 12:19:02;;;;;;;6.57;3.10;;;;;;;;;;3358097;42;20143;-60
2022/07/02 12:21:36;;;;;;;11.40;3.67;;;;;;;;;;3358203;42;20183;-59
2022/07/02 12:24:07;;;;;;;8.73;3.50;;;;;;;;;;3357810;42;20103;-58
2022/07/02 12:26:33;;;;;;;6.05;3.03;;;;;;;;;;3357840;42;20115;-57
2022/07/02 12:31:51;;;;;;;7.05;3.40;;;;;;;;;;3357853;42;20207;-58
2022/07/02 12:34:18;;;;;;;7.23;3.40;;;;;;;;;;3357837;42;20088;-56
2022/07/02 12:37:02;;;;;;;7.00;3.22;;;;;;;;;;3357966;42;20661;-57
2022/07/02 12:39:42;;;;;;;6.78;3.42;;;;;;;;;;3358264;42;20092;-56
2022/07/02 12:42:21;;;;;;;6.72;3.30;;;;;;;;;;3356920;42;20092;-57
2022/07/02 12:45:06;;;;;;;11.25;3.75;;;;;;;;;;3357974;42;20100;-58
2022/07/02 12:47:34;;;;;;;7.43;3.60;;;;;;;;;;3356417;42;20135;-58
2022/07/02 12:50:04;;;;;;;9.38;3.53;;;;;;;;;;3357493;42;20131;-57
2022/07/02 12:52:31;;;;;;;7.55;3.58;;;;;;;;;;3358658;42;20632;-62
2022/07/02 12:54:58;;;;;;;7.93;3.60;;;;;;;;;;3356185;42;20104;-57
2022/07/02 12:57:24;;;;;;;6.60;3.38;;;;;;;;;;3356103;42;20084;-53
2022/07/02 12:59:52;;;;;;;8.97;4.53;;;;;;;;;;3357173;42;20582;-55
2022/07/02 13:02:25;;;;;;;6.80;3.45;;;;;;;;;;3352426;42;20096;-63
2022/07/02 13:04:51;;;;;;;6.38;2.97;;;;;;;;;;3357327;42;20096;-57
2022/07/02 13:07:17;;;;;;;8.60;3.30;;;;;;;;;;3355694;42;20155;-56
2022/07/02 13:09:43;;;;;;;7.17;3.23;;;;;;;;;;3357416;42;20106;-55
2022/07/02 13:12:10;;;;;;;9.60;4.55;;;;;;;;;;3359558;42;20084;-53
2022/07/02 13:14:38;;;;;;;6.68;3.58;;;;;;;;;;3361505;42;20557;-58
2022/07/02 13:17:04;;;;;;;8.75;3.40;;;;;;;;;;3357383;42;20114;-57
2022/07/02 13:19:30;;;;;;;8.40;4.22;;;;;;;;;;3358998;42;20092;-55
2022/07/02 13:21:56;;;;;;;6.73;3.30;;;;;;;;;;3361249;42;20163;-55
2022/07/02 13:24:22;;;;;;;7.68;3.10;;;;;;;;;;3361794;42;20479;-53
2022/07/02 13:26:47;;;;;;;9.55;3.50;;;;;;;;;;3357354;42;20135;-55
2022/07/02 13:29:13;;;;;;;7.95;3.40;;;;;;;;;;3357083;42;20094;-56
2022/07/02 13:31:39;;;;;;;9.10;4.60;;;;;;;;;;3357210;42;20672;-56
2022/07/02 13:34:05;;;;;;;8.53;3.97;;;;;;;;;;3357353;42;20295;-55
2022/07/02 13:36:31;;;;;;;8.95;4.20;;;;;;;;;;3356938;42;20092;-53
2022/07/02 13:38:57;;;;;;;8.55;3.70;;;;;;;;;;3359323;42;20518;-58
2022/07/02 13:41:23;;;;;;;9.33;4.10;;;;;;;;;;3360874;42;20493;-57
2022/07/02 13:43:49;;;;;;;6.93;3.60;;;;;;;;;;3358675;42;20088;-56
2022/07/02 13:46:15;;;;;;;7.70;4.18;;;;;;;;;;3359365;42;20175;-56
2022/07/02 13:48:41;;;;;;;10.88;3.58;;;;;;;;;;3359798;42;20538;-55
2022/07/02 13:51:08;;;;;;;7.67;3.60;;;;;;;;;;3361910;42;21240;-55
2022/07/02 13:53:34;;;;;;;8.57;3.53;;;;;;;;;;3358150;42;20154;-58
2022/07/02 13:56:00;;;;;;;6.78;3.58;;;;;;;;;;3360828;42;20092;-55
2022/07/02 13:58:26;;;;;;;7.82;3.63;;;;;;;;;;3359535;42;20506;-57
2022/07/02 14:00:52;;;;;;;6.67;3.60;;;;;;;;;;3362713;42;20092;-56
2022/07/02 14:03:18;;;;;;;6.53;3.30;;;;;;;;;;3357354;42;20288;-56
2022/07/02 14:05:44;;;;;;;9.43;4.70;;;;;;;;;;3357003;42;20100;-54
2022/07/02 14:08:10;;;;;;;6.50;3.70;;;;;;;;;;3357243;42;20119;-58
2022/07/02 14:10:36;;;;;;;7.95;3.85;;;;;;;;;;3359412;42;20578;-60
2022/07/02 14:13:02;;;;;;;7.53;3.60;;;;;;;;;;3360733;42;20144;-57
2022/07/02 14:15:29;;;;;;;7.85;3.95;;;;;;;;;;3357199;42;20203;-59
2022/07/02 14:17:55;;;;;;;9.55;4.28;;;;;;;;;;3358025;42;20080;-57
2022/07/02 14:20:21;;;;;;;9.55;4.20;;;;;;;;;;3359010;42;20148;-59
2022/07/02 14:22:47;;;;;;;11.10;4.00;;;;;;;;;;3359142;42;20155;-55
2022/07/02 14:25:13;;;;;;;11.35;4.30;;;;;;;;;;3358883;42;20715;-58
2022/07/02 14:27:39;;;;;;;11.10;4.50;;;;;;;;;;3359018;42;20179;-56
2022/07/02 14:30:05;;;;;;;9.57;3.80;;;;;;;;;;3358530;42;20096;-55
2022/07/02 14:32:31;;;;;;;10.83;4.53;;;;;;;;;;3358729;42;20100;-53
2022/07/02 14:34:57;;;;;;;10.02;3.80;;;;;;;;;;3358567;42;20099;-54
2022/07/02 14:37:23;;;;;;;8.80;3.90;;;;;;;;;;3358644;42;20091;-56
2022/07/02 14:39:49;;;;;;;10.20;4.25;;;;;;;;;;3357516;42;20085;-56
2022/07/02 14:42:15;;;;;;;12.73;4.30;;;;;;;;;;3358866;42;20076;-58
2022/07/02 14:44:41;;;;;;;9.43;4.10;;;;;;;;;;3358484;42;20150;-57
2022/07/02 14:47:07;;;;;;;11.30;4.03;;;;;;;;;;3358790;42;20096;-56